sensor_id;sensor_type;location;lat;lon;timestamp;P1;durP1;ratioP1;P2;durP2;ratioP2
38513;SDS011;24282;48.400;10.808;2023-02-28T00:01:37;4.00;;;2.60;;
38513;SDS011;24282;48.400;10.808;2023-02-28T00:04:03;4.63;;;2.43;;
38513;SDS011;24282;48.400;10.808;2023-02-28T00:06:29;5.57;;;3.03;;
38513;SDS011;24282;48.400;10.808;2023-02-28T00:08:54;5.20;;;3.30;;
38513;SDS011;24282;48.400;10.808;2023-02-28T00:11:20;4.50;;;2.53;;
38513;SDS011;24282;48.400;10.808;2023-02-28T00:13:47;5.20;;;2.50;;
38513;SDS011;24282;48.400;10.808;2023-02-28T00:16:15;5.50;;;3.13;;
38513;SDS011;24282;48.400;10.808;2023-02-28T00:18:46;5.20;;;2.72;;
38513;SDS011;24282;48.400;10.808;2023-02-28T00:21:12;5.03;;;2.60;;
38513;SDS011;24282;48.400;10.808;2023-02-28T00:23:38;4.17;;;2.50;;
38513;SDS011;24282;48.400;10.808;2023-02-28T00:26:04;4.27;;;2.73;;
38513;SDS011;24282;48.400;10.808;2023-02-28T00:28:30;7.20;;;2.50;;
38513;SDS011;24282;48.400;10.808;2023-02-28T00:30:58;4.47;;;2.60;;
38513;SDS011;24282;48.400;10.808;2023-02-28T00:33:25;4.30;;;2.63;;
38513;SDS011;24282;48.400;10.808;2023-02-28T00:36:00;4.40;;;2.60;;
38513;SDS011;24282;48.400;10.808;2023-02-28T00:38:37;4.32;;;2.45;;
38513;SDS011;24282;48.400;10.808;2023-02-28T00:41:04;5.60;;;3.17;;
38513;SDS011;24282;48.400;10.808;2023-02-28T00:43:31;5.37;;;2.80;;
38513;SDS011;24282;48.400;10.808;2023-02-28T00:45:57;5.23;;;3.10;;
38513;SDS011;24282;48.400;10.808;2023-02-28T00:48:23;4.70;;;2.67;;
38513;SDS011;24282;48.400;10.808;2023-02-28T00:50:49;4.73;;;2.80;;
38513;SDS011;24282;48.400;10.808;2023-02-28T00:53:15;7.00;;;3.40;;
38513;SDS011;24282;48.400;10.808;2023-02-28T00:55:40;5.93;;;3.00;;
38513;SDS011;24282;48.400;10.808;2023-02-28T00:58:06;7.00;;;3.30;;
38513;SDS011;24282;48.400;10.808;2023-02-28T01:00:32;5.60;;;3.07;;
38513;SDS011;24282;48.400;10.808;2023-02-28T01:02:57;6.27;;;2.60;;
38513;SDS011;24282;48.400;10.808;2023-02-28T01:05:23;5.93;;;3.50;;
38513;SDS011;24282;48.400;10.808;2023-02-28T01:07:49;4.77;;;3.13;;
38513;SDS011;24282;48.400;10.808;2023-02-28T01:10:15;4.20;;;2.73;;
38513;SDS011;24282;48.400;10.808;2023-02-28T01:12:41;4.33;;;2.83;;
38513;SDS011;24282;48.400;10.808;2023-02-28T01:15:09;5.83;;;3.10;;
38513;SDS011;24282;48.400;10.808;2023-02-28T01:17:36;5.10;;;3.07;;
38513;SDS011;24282;48.400;10.808;2023-02-28T01:20:02;4.40;;;2.80;;
38513;SDS011;24282;48.400;10.808;2023-02-28T01:22:29;6.53;;;3.00;;
38513;SDS011;24282;48.400;10.808;2023-02-28T01:24:55;4.40;;;2.83;;
38513;SDS011;24282;48.400;10.808;2023-02-28T01:27:20;5.37;;;2.87;;
38513;SDS011;24282;48.400;10.808;2023-02-28T01:29:46;6.60;;;2.97;;
38513;SDS011;24282;48.400;10.808;2023-02-28T01:32:12;5.17;;;3.23;;
38513;SDS011;24282;48.400;10.808;2023-02-28T01:34:38;5.47;;;3.20;;
38513;SDS011;24282;48.400;10.808;2023-02-28T01:37:03;4.53;;;2.47;;
38513;SDS011;24282;48.400;10.808;2023-02-28T01:39:29;5.97;;;3.30;;
38513;SDS011;24282;48.400;10.808;2023-02-28T01:41:55;5.33;;;3.03;;
38513;SDS011;24282;48.400;10.808;2023-02-28T01:47:25;4.80;;;2.58;;
38513;SDS011;24282;48.400;10.808;2023-02-28T01:49:56;7.17;;;2.70;;
38513;SDS011;24282;48.400;10.808;2023-02-28T01:52:22;5.17;;;3.00;;
38513;SDS011;24282;48.400;10.808;2023-02-28T01:54:53;4.90;;;2.93;;
38513;SDS011;24282;48.400;10.808;2023-02-28T01:57:23;5.07;;;3.07;;
38513;SDS011;24282;48.400;10.808;2023-02-28T01:59:54;5.07;;;2.90;;
38513;SDS011;24282;48.400;10.808;2023-02-28T02:02:38;5.13;;;3.00;;
38513;SDS011;24282;48.400;10.808;2023-02-28T02:05:08;4.33;;;2.90;;
38513;SDS011;24282;48.400;10.808;2023-02-28T02:07:41;7.10;;;3.33;;
38513;SDS011;24282;48.400;10.808;2023-02-28T02:10:13;5.33;;;3.37;;
38513;SDS011;24282;48.400;10.808;2023-02-28T02:18:43;6.22;;;3.53;;
38513;SDS011;24282;48.400;10.808;2023-02-28T02:21:16;5.43;;;3.20;;
38513;SDS011;24282;48.400;10.808;2023-02-28T02:36:07;4.60;;;3.23;;
38513;SDS011;24282;48.400;10.808;2023-02-28T02:39:02;5.27;;;3.30;;
38513;SDS011;24282;48.400;10.808;2023-02-28T02:41:47;4.80;;;3.20;;
38513;SDS011;24282;48.400;10.808;2023-02-28T02:46:45;5.47;;;3.47;;
38513;SDS011;24282;48.400;10.808;2023-02-28T02:49:15;8.27;;;4.03;;
38513;SDS011;24282;48.400;10.808;2023-02-28T02:51:44;5.27;;;3.40;;
38513;SDS011;24282;48.400;10.808;2023-02-28T02:54:17;6.70;;;3.87;;
38513;SDS011;24282;48.400;10.808;2023-02-28T02:56:48;5.83;;;3.47;;
38513;SDS011;24282;48.400;10.808;2023-02-28T02:59:18;5.83;;;4.00;;
38513;SDS011;24282;48.400;10.808;2023-02-28T03:01:52;6.43;;;3.47;;
38513;SDS011;24282;48.400;10.808;2023-02-28T03:04:22;5.80;;;3.60;;
38513;SDS011;24282;48.400;10.808;2023-02-28T03:06:50;6.57;;;3.67;;
38513;SDS011;24282;48.400;10.808;2023-02-28T03:09:21;8.20;;;3.90;;
38513;SDS011;24282;48.400;10.808;2023-02-28T03:11:47;8.60;;;4.50;;
38513;SDS011;24282;48.400;10.808;2023-02-28T03:20:31;6.83;;;3.77;;
38513;SDS011;24282;48.400;10.808;2023-02-28T03:25:33;6.30;;;3.77;;
38513;SDS011;24282;48.400;10.808;2023-02-28T03:28:51;5.93;;;3.67;;
38513;SDS011;24282;48.400;10.808;2023-02-28T03:30:50;6.87;;;3.80;;
38513;SDS011;24282;48.400;10.808;2023-02-28T03:33:22;7.43;;;4.03;;
38513;SDS011;24282;48.400;10.808;2023-02-28T03:36:00;8.90;;;4.20;;
38513;SDS011;24282;48.400;10.808;2023-02-28T03:43:41;7.23;;;3.77;;
38513;SDS011;24282;48.400;10.808;2023-02-28T03:46:11;7.40;;;4.10;;
38513;SDS011;24282;48.400;10.808;2023-02-28T03:48:44;8.03;;;4.17;;
38513;SDS011;24282;48.400;10.808;2023-02-28T03:51:15;6.70;;;4.03;;
38513;SDS011;24282;48.400;10.808;2023-02-28T03:53:45;8.47;;;4.80;;
38513;SDS011;24282;48.400;10.808;2023-02-28T03:56:32;7.30;;;4.30;;
38513;SDS011;24282;48.400;10.808;2023-02-28T03:59:16;6.50;;;4.07;;
38513;SDS011;24282;48.400;10.808;2023-02-28T04:01:52;8.07;;;4.80;;
38513;SDS011;24282;48.400;10.808;2023-02-28T04:04:18;7.43;;;4.27;;
38513;SDS011;24282;48.400;10.808;2023-02-28T04:06:44;6.43;;;4.23;;
38513;SDS011;24282;48.400;10.808;2023-02-28T04:09:11;5.67;;;3.80;;
38513;SDS011;24282;48.400;10.808;2023-02-28T04:11:39;7.70;;;4.60;;
38513;SDS011;24282;48.400;10.808;2023-02-28T04:14:07;7.07;;;4.47;;
38513;SDS011;24282;48.400;10.808;2023-02-28T04:16:35;7.13;;;4.70;;
38513;SDS011;24282;48.400;10.808;2023-02-28T04:19:03;6.70;;;4.33;;
38513;SDS011;24282;48.400;10.808;2023-02-28T04:21:34;7.57;;;4.50;;
38513;SDS011;24282;48.400;10.808;2023-02-28T04:24:04;6.65;;;4.10;;
38513;SDS011;24282;48.400;10.808;2023-02-28T04:26:30;8.10;;;4.50;;
38513;SDS011;24282;48.400;10.808;2023-02-28T04:28:58;7.10;;;4.50;;
38513;SDS011;24282;48.400;10.808;2023-02-28T04:31:24;6.67;;;4.30;;
38513;SDS011;24282;48.400;10.808;2023-02-28T04:33:50;7.13;;;4.73;;
38513;SDS011;24282;48.400;10.808;2023-02-28T04:36:16;7.40;;;4.83;;
38513;SDS011;24282;48.400;10.808;2023-02-28T04:38:43;9.00;;;4.33;;
38513;SDS011;24282;48.400;10.808;2023-02-28T04:41:10;8.00;;;4.07;;
38513;SDS011;24282;48.400;10.808;2023-02-28T04:43:36;11.87;;;5.10;;
38513;SDS011;24282;48.400;10.808;2023-02-28T04:46:03;8.70;;;5.07;;
38513;SDS011;24282;48.400;10.808;2023-02-28T04:48:31;7.23;;;4.50;;
38513;SDS011;24282;48.400;10.808;2023-02-28T04:51:02;6.60;;;4.50;;
38513;SDS011;24282;48.400;10.808;2023-02-28T04:53:35;8.10;;;4.80;;
38513;SDS011;24282;48.400;10.808;2023-02-28T04:56:02;7.13;;;4.50;;
38513;SDS011;24282;48.400;10.808;2023-02-28T04:58:29;6.73;;;4.67;;
38513;SDS011;24282;48.400;10.808;2023-02-28T05:01:00;9.53;;;5.20;;
38513;SDS011;24282;48.400;10.808;2023-02-28T05:05:53;6.67;;;4.30;;
38513;SDS011;24282;48.400;10.808;2023-02-28T05:08:19;6.70;;;4.53;;
38513;SDS011;24282;48.400;10.808;2023-02-28T05:10:45;7.10;;;4.90;;
38513;SDS011;24282;48.400;10.808;2023-02-28T05:13:13;7.00;;;4.77;;
38513;SDS011;24282;48.400;10.808;2023-02-28T05:15:39;8.47;;;5.47;;
38513;SDS011;24282;48.400;10.808;2023-02-28T05:18:05;6.63;;;4.50;;
38513;SDS011;24282;48.400;10.808;2023-02-28T05:20:31;8.60;;;5.17;;
38513;SDS011;24282;48.400;10.808;2023-02-28T05:22:56;7.67;;;5.13;;
38513;SDS011;24282;48.400;10.808;2023-02-28T05:25:23;6.30;;;4.33;;
38513;SDS011;24282;48.400;10.808;2023-02-28T05:27:49;7.67;;;5.03;;
38513;SDS011;24282;48.400;10.808;2023-02-28T05:30:15;8.47;;;4.97;;
38513;SDS011;24282;48.400;10.808;2023-02-28T05:32:41;6.47;;;4.80;;
38513;SDS011;24282;48.400;10.808;2023-02-28T05:35:10;7.50;;;5.00;;
38513;SDS011;24282;48.400;10.808;2023-02-28T05:37:36;7.20;;;5.30;;
38513;SDS011;24282;48.400;10.808;2023-02-28T05:40:06;7.63;;;5.13;;
38513;SDS011;24282;48.400;10.808;2023-02-28T05:42:35;8.40;;;5.60;;
38513;SDS011;24282;48.400;10.808;2023-02-28T05:45:05;10.80;;;5.40;;
38513;SDS011;24282;48.400;10.808;2023-02-28T05:47:34;7.38;;;4.68;;
38513;SDS011;24282;48.400;10.808;2023-02-28T05:50:00;8.60;;;4.83;;
38513;SDS011;24282;48.400;10.808;2023-02-28T05:52:27;7.87;;;5.13;;
38513;SDS011;24282;48.400;10.808;2023-02-28T05:54:55;8.77;;;5.73;;
38513;SDS011;24282;48.400;10.808;2023-02-28T05:57:21;8.90;;;5.00;;
38513;SDS011;24282;48.400;10.808;2023-02-28T05:59:47;8.63;;;5.20;;
38513;SDS011;24282;48.400;10.808;2023-02-28T06:02:14;9.53;;;5.70;;
38513;SDS011;24282;48.400;10.808;2023-02-28T06:04:41;8.30;;;4.97;;
38513;SDS011;24282;48.400;10.808;2023-02-28T06:07:08;8.37;;;6.00;;
38513;SDS011;24282;48.400;10.808;2023-02-28T06:09:34;9.70;;;6.10;;
38513;SDS011;24282;48.400;10.808;2023-02-28T06:12:00;10.00;;;5.87;;
38513;SDS011;24282;48.400;10.808;2023-02-28T06:14:31;8.30;;;5.27;;
38513;SDS011;24282;48.400;10.808;2023-02-28T06:16:58;7.53;;;5.87;;
38513;SDS011;24282;48.400;10.808;2023-02-28T06:19:25;7.83;;;5.33;;
38513;SDS011;24282;48.400;10.808;2023-02-28T06:21:51;8.07;;;5.50;;
38513;SDS011;24282;48.400;10.808;2023-02-28T06:24:22;8.47;;;5.53;;
38513;SDS011;24282;48.400;10.808;2023-02-28T06:26:49;8.40;;;4.97;;
38513;SDS011;24282;48.400;10.808;2023-02-28T06:29:16;9.17;;;5.97;;
38513;SDS011;24282;48.400;10.808;2023-02-28T06:31:43;7.73;;;5.23;;
38513;SDS011;24282;48.400;10.808;2023-02-28T06:34:11;9.27;;;5.93;;
38513;SDS011;24282;48.400;10.808;2023-02-28T06:36:40;8.53;;;5.90;;
38513;SDS011;24282;48.400;10.808;2023-02-28T06:39:06;7.17;;;5.40;;
38513;SDS011;24282;48.400;10.808;2023-02-28T06:41:33;9.30;;;5.77;;
38513;SDS011;24282;48.400;10.808;2023-02-28T06:44:04;8.23;;;5.50;;
38513;SDS011;24282;48.400;10.808;2023-02-28T06:46:31;8.83;;;5.57;;
38513;SDS011;24282;48.400;10.808;2023-02-28T06:48:57;8.97;;;5.70;;
38513;SDS011;24282;48.400;10.808;2023-02-28T06:51:23;10.73;;;5.80;;
38513;SDS011;24282;48.400;10.808;2023-02-28T06:53:49;9.83;;;6.00;;
38513;SDS011;24282;48.400;10.808;2023-02-28T06:56:16;8.70;;;5.53;;
38513;SDS011;24282;48.400;10.808;2023-02-28T06:58:45;10.60;;;5.73;;
38513;SDS011;24282;48.400;10.808;2023-02-28T07:01:13;9.33;;;6.67;;
38513;SDS011;24282;48.400;10.808;2023-02-28T07:03:39;12.00;;;6.10;;
38513;SDS011;24282;48.400;10.808;2023-02-28T07:06:05;8.93;;;5.80;;
38513;SDS011;24282;48.400;10.808;2023-02-28T07:08:32;9.90;;;5.97;;
38513;SDS011;24282;48.400;10.808;2023-02-28T07:11:01;9.57;;;6.60;;
38513;SDS011;24282;48.400;10.808;2023-02-28T07:13:27;7.93;;;5.80;;
38513;SDS011;24282;48.400;10.808;2023-02-28T07:15:53;10.80;;;6.13;;
38513;SDS011;24282;48.400;10.808;2023-02-28T07:18:24;12.23;;;6.47;;
38513;SDS011;24282;48.400;10.808;2023-02-28T07:20:51;9.97;;;6.57;;
38513;SDS011;24282;48.400;10.808;2023-02-28T07:23:17;10.83;;;6.43;;
38513;SDS011;24282;48.400;10.808;2023-02-28T07:25:43;9.23;;;5.67;;
38513;SDS011;24282;48.400;10.808;2023-02-28T07:28:10;10.37;;;6.47;;
38513;SDS011;24282;48.400;10.808;2023-02-28T07:30:36;9.37;;;6.10;;
38513;SDS011;24282;48.400;10.808;2023-02-28T07:33:02;9.60;;;6.13;;
38513;SDS011;24282;48.400;10.808;2023-02-28T07:35:29;10.87;;;6.30;;
38513;SDS011;24282;48.400;10.808;2023-02-28T07:37:55;9.77;;;6.67;;
38513;SDS011;24282;48.400;10.808;2023-02-28T07:40:22;9.03;;;6.10;;
38513;SDS011;24282;48.400;10.808;2023-02-28T07:42:48;7.17;;;5.90;;
38513;SDS011;24282;48.400;10.808;2023-02-28T07:45:16;12.47;;;6.60;;
38513;SDS011;24282;48.400;10.808;2023-02-28T07:47:43;10.20;;;7.00;;
38513;SDS011;24282;48.400;10.808;2023-02-28T07:50:09;9.77;;;6.60;;
38513;SDS011;24282;48.400;10.808;2023-02-28T07:52:37;9.40;;;6.40;;
38513;SDS011;24282;48.400;10.808;2023-02-28T07:55:04;9.37;;;6.87;;
38513;SDS011;24282;48.400;10.808;2023-02-28T07:57:30;8.93;;;5.83;;
38513;SDS011;24282;48.400;10.808;2023-02-28T07:59:57;10.73;;;6.67;;
38513;SDS011;24282;48.400;10.808;2023-02-28T08:02:23;8.60;;;6.27;;
38513;SDS011;24282;48.400;10.808;2023-02-28T08:04:49;9.67;;;6.37;;
38513;SDS011;24282;48.400;10.808;2023-02-28T08:07:15;11.83;;;6.57;;
38513;SDS011;24282;48.400;10.808;2023-02-28T08:09:42;8.57;;;6.23;;
38513;SDS011;24282;48.400;10.808;2023-02-28T08:12:09;10.67;;;6.43;;
38513;SDS011;24282;48.400;10.808;2023-02-28T08:14:35;8.57;;;6.13;;
38513;SDS011;24282;48.400;10.808;2023-02-28T08:17:02;10.50;;;6.77;;
38513;SDS011;24282;48.400;10.808;2023-02-28T08:19:28;9.47;;;6.87;;
38513;SDS011;24282;48.400;10.808;2023-02-28T08:21:54;12.43;;;7.43;;
38513;SDS011;24282;48.400;10.808;2023-02-28T08:24:20;11.00;;;7.13;;
38513;SDS011;24282;48.400;10.808;2023-02-28T08:26:46;11.60;;;6.90;;
38513;SDS011;24282;48.400;10.808;2023-02-28T08:29:12;11.33;;;7.00;;
38513;SDS011;24282;48.400;10.808;2023-02-28T08:31:38;15.43;;;7.07;;
38513;SDS011;24282;48.400;10.808;2023-02-28T08:34:11;12.77;;;8.03;;
38513;SDS011;24282;48.400;10.808;2023-02-28T08:36:40;12.53;;;8.00;;
38513;SDS011;24282;48.400;10.808;2023-02-28T08:39:06;12.37;;;7.47;;
38513;SDS011;24282;48.400;10.808;2023-02-28T08:41:33;11.30;;;7.30;;
38513;SDS011;24282;48.400;10.808;2023-02-28T08:43:58;9.47;;;7.30;;
38513;SDS011;24282;48.400;10.808;2023-02-28T08:46:25;9.80;;;7.53;;
38513;SDS011;24282;48.400;10.808;2023-02-28T08:48:51;11.40;;;7.77;;
38513;SDS011;24282;48.400;10.808;2023-02-28T08:51:24;10.80;;;7.65;;
38513;SDS011;24282;48.400;10.808;2023-02-28T08:53:53;10.80;;;7.57;;
38513;SDS011;24282;48.400;10.808;2023-02-28T08:56:20;11.50;;;8.23;;
38513;SDS011;24282;48.400;10.808;2023-02-28T08:58:47;11.07;;;7.70;;
38513;SDS011;24282;48.400;10.808;2023-02-28T09:03:42;12.30;;;7.73;;
38513;SDS011;24282;48.400;10.808;2023-02-28T09:06:09;11.03;;;8.00;;
38513;SDS011;24282;48.400;10.808;2023-02-28T09:08:35;13.40;;;8.70;;
38513;SDS011;24282;48.400;10.808;2023-02-28T09:11:01;12.00;;;8.30;;
38513;SDS011;24282;48.400;10.808;2023-02-28T09:13:28;12.60;;;8.40;;
38513;SDS011;24282;48.400;10.808;2023-02-28T09:15:57;11.80;;;7.93;;
38513;SDS011;24282;48.400;10.808;2023-02-28T09:18:23;11.47;;;7.40;;
38513;SDS011;24282;48.400;10.808;2023-02-28T09:20:49;11.07;;;7.70;;
38513;SDS011;24282;48.400;10.808;2023-02-28T09:23:15;12.67;;;8.67;;
38513;SDS011;24282;48.400;10.808;2023-02-28T09:25:48;12.00;;;7.93;;
38513;SDS011;24282;48.400;10.808;2023-02-28T09:28:16;10.70;;;8.33;;
38513;SDS011;24282;48.400;10.808;2023-02-28T09:30:47;12.10;;;7.30;;
38513;SDS011;24282;48.400;10.808;2023-02-28T09:33:14;11.93;;;8.10;;
38513;SDS011;24282;48.400;10.808;2023-02-28T09:35:41;11.10;;;7.83;;
38513;SDS011;24282;48.400;10.808;2023-02-28T09:38:08;11.80;;;8.40;;
38513;SDS011;24282;48.400;10.808;2023-02-28T09:40:56;13.37;;;8.67;;
38513;SDS011;24282;48.400;10.808;2023-02-28T09:43:28;14.27;;;8.60;;
38513;SDS011;24282;48.400;10.808;2023-02-28T09:48:46;12.47;;;7.97;;
38513;SDS011;24282;48.400;10.808;2023-02-28T09:51:32;12.30;;;8.17;;
38513;SDS011;24282;48.400;10.808;2023-02-28T09:53:59;10.30;;;7.40;;
38513;SDS011;24282;48.400;10.808;2023-02-28T09:56:48;13.30;;;8.03;;
38513;SDS011;24282;48.400;10.808;2023-02-28T10:05:13;11.60;;;8.25;;
38513;SDS011;24282;48.400;10.808;2023-02-28T10:15:52;8.65;;;6.13;;
38513;SDS011;24282;48.400;10.808;2023-02-28T10:18:28;13.00;;;8.87;;
38513;SDS011;24282;48.400;10.808;2023-02-28T10:21:03;10.03;;;7.83;;
38513;SDS011;24282;48.400;10.808;2023-02-28T10:23:32;10.90;;;7.77;;
38513;SDS011;24282;48.400;10.808;2023-02-28T10:26:03;12.00;;;8.93;;
38513;SDS011;24282;48.400;10.808;2023-02-28T10:28:41;12.33;;;8.53;;
38513;SDS011;24282;48.400;10.808;2023-02-28T10:31:18;12.37;;;9.10;;
38513;SDS011;24282;48.400;10.808;2023-02-28T10:33:44;13.03;;;8.73;;
38513;SDS011;24282;48.400;10.808;2023-02-28T10:36:16;12.47;;;8.93;;
38513;SDS011;24282;48.400;10.808;2023-02-28T10:38:46;10.70;;;8.47;;
38513;SDS011;24282;48.400;10.808;2023-02-28T10:41:26;10.03;;;7.97;;
38513;SDS011;24282;48.400;10.808;2023-02-28T10:44:21;11.50;;;8.00;;
38513;SDS011;24282;48.400;10.808;2023-02-28T10:46:48;10.73;;;7.97;;
38513;SDS011;24282;48.400;10.808;2023-02-28T10:51:57;14.60;;;9.00;;
38513;SDS011;24282;48.400;10.808;2023-02-28T10:59:50;10.77;;;8.33;;
38513;SDS011;24282;48.400;10.808;2023-02-28T11:02:38;12.10;;;8.90;;
38513;SDS011;24282;48.400;10.808;2023-02-28T11:05:27;10.87;;;7.67;;
38513;SDS011;24282;48.400;10.808;2023-02-28T11:10:44;11.77;;;7.67;;
38513;SDS011;24282;48.400;10.808;2023-02-28T11:13:19;11.20;;;8.87;;
38513;SDS011;24282;48.400;10.808;2023-02-28T11:15:59;10.77;;;7.80;;
38513;SDS011;24282;48.400;10.808;2023-02-28T11:21:17;10.93;;;8.23;;
38513;SDS011;24282;48.400;10.808;2023-02-28T11:23:52;14.87;;;9.10;;
38513;SDS011;24282;48.400;10.808;2023-02-28T11:26:36;11.77;;;8.30;;
38513;SDS011;24282;48.400;10.808;2023-02-28T11:29:21;10.50;;;7.37;;
38513;SDS011;24282;48.400;10.808;2023-02-28T11:34:47;11.50;;;8.63;;
38513;SDS011;24282;48.400;10.808;2023-02-28T11:37:25;10.60;;;7.80;;
38513;SDS011;24282;48.400;10.808;2023-02-28T11:39:53;12.10;;;9.07;;
38513;SDS011;24282;48.400;10.808;2023-02-28T11:42:36;11.30;;;8.20;;
38513;SDS011;24282;48.400;10.808;2023-02-28T11:56:32;12.07;;;8.63;;
38513;SDS011;24282;48.400;10.808;2023-02-28T12:07:19;10.17;;;8.00;;
38513;SDS011;24282;48.400;10.808;2023-02-28T12:18:11;11.90;;;8.23;;
38513;SDS011;24282;48.400;10.808;2023-02-28T12:31:46;11.53;;;8.27;;
38513;SDS011;24282;48.400;10.808;2023-02-28T12:34:39;10.30;;;7.37;;
38513;SDS011;24282;48.400;10.808;2023-02-28T12:37:14;11.97;;;8.17;;
38513;SDS011;24282;48.400;10.808;2023-02-28T12:39:45;11.03;;;8.07;;
38513;SDS011;24282;48.400;10.808;2023-02-28T12:42:34;12.63;;;8.53;;
38513;SDS011;24282;48.400;10.808;2023-02-28T12:45:05;12.70;;;8.17;;
38513;SDS011;24282;48.400;10.808;2023-02-28T12:47:34;9.67;;;7.33;;
38513;SDS011;24282;48.400;10.808;2023-02-28T12:50:02;9.37;;;7.43;;
38513;SDS011;24282;48.400;10.808;2023-02-28T12:55:00;11.17;;;7.97;;
38513;SDS011;24282;48.400;10.808;2023-02-28T13:00:14;11.25;;;8.25;;
38513;SDS011;24282;48.400;10.808;2023-02-28T13:08:39;7.85;;;5.75;;
38513;SDS011;24282;48.400;10.808;2023-02-28T13:11:33;10.75;;;7.30;;
38513;SDS011;24282;48.400;10.808;2023-02-28T13:14:43;8.50;;;7.00;;
38513;SDS011;24282;48.400;10.808;2023-02-28T13:19:38;8.93;;;7.07;;
38513;SDS011;24282;48.400;10.808;2023-02-28T13:25:49;8.53;;;7.07;;
38513;SDS011;24282;48.400;10.808;2023-02-28T13:27:54;9.73;;;7.27;;
38513;SDS011;24282;48.400;10.808;2023-02-28T13:49:31;11.17;;;7.57;;
38513;SDS011;24282;48.400;10.808;2023-02-28T14:00:05;11.80;;;7.80;;
38513;SDS011;24282;48.400;10.808;2023-02-28T14:03:07;10.03;;;7.33;;
38513;SDS011;24282;48.400;10.808;2023-02-28T14:05:39;9.70;;;7.15;;
38513;SDS011;24282;48.400;10.808;2023-02-28T14:08:14;10.87;;;7.40;;
38513;SDS011;24282;48.400;10.808;2023-02-28T14:10:49;11.07;;;8.53;;
38513;SDS011;24282;48.400;10.808;2023-02-28T14:16:09;10.17;;;7.77;;
38513;SDS011;24282;48.400;10.808;2023-02-28T14:18:40;8.13;;;6.27;;
38513;SDS011;24282;48.400;10.808;2023-02-28T14:21:16;8.97;;;6.30;;
38513;SDS011;24282;48.400;10.808;2023-02-28T14:26:49;10.10;;;7.80;;
38513;SDS011;24282;48.400;10.808;2023-02-28T14:35:29;9.50;;;6.57;;
38513;SDS011;24282;48.400;10.808;2023-02-28T14:38:36;9.60;;;6.30;;
38513;SDS011;24282;48.400;10.808;2023-02-28T14:41:13;10.30;;;7.80;;
38513;SDS011;24282;48.400;10.808;2023-02-28T14:43:58;8.00;;;6.30;;
38513;SDS011;24282;48.400;10.808;2023-02-28T14:46:26;9.47;;;7.47;;
38513;SDS011;24282;48.400;10.808;2023-02-28T14:49:03;9.20;;;6.70;;
38513;SDS011;24282;48.400;10.808;2023-02-28T14:51:37;11.43;;;7.47;;
38513;SDS011;24282;48.400;10.808;2023-02-28T14:54:03;11.13;;;7.37;;
38513;SDS011;24282;48.400;10.808;2023-02-28T14:56:32;10.17;;;7.37;;
38513;SDS011;24282;48.400;10.808;2023-02-28T14:59:02;9.80;;;7.13;;
38513;SDS011;24282;48.400;10.808;2023-02-28T15:01:29;9.33;;;7.67;;
38513;SDS011;24282;48.400;10.808;2023-02-28T15:04:04;9.17;;;6.30;;
38513;SDS011;24282;48.400;10.808;2023-02-28T15:06:32;10.67;;;7.13;;
38513;SDS011;24282;48.400;10.808;2023-02-28T15:09:08;8.67;;;6.63;;
38513;SDS011;24282;48.400;10.808;2023-02-28T15:11:45;10.80;;;6.57;;
38513;SDS011;24282;48.400;10.808;2023-02-28T15:14:15;9.23;;;6.90;;
38513;SDS011;24282;48.400;10.808;2023-02-28T15:16:44;10.00;;;6.90;;
38513;SDS011;24282;48.400;10.808;2023-02-28T15:22:13;9.97;;;7.30;;
38513;SDS011;24282;48.400;10.808;2023-02-28T15:24:50;9.40;;;6.17;;
38513;SDS011;24282;48.400;10.808;2023-02-28T15:27:21;10.27;;;7.10;;
38513;SDS011;24282;48.400;10.808;2023-02-28T15:30:00;9.07;;;6.83;;
38513;SDS011;24282;48.400;10.808;2023-02-28T15:32:35;10.13;;;7.10;;
38513;SDS011;24282;48.400;10.808;2023-02-28T15:35:24;9.73;;;7.60;;
38513;SDS011;24282;48.400;10.808;2023-02-28T15:38:14;10.10;;;7.60;;
38513;SDS011;24282;48.400;10.808;2023-02-28T15:40:52;9.30;;;6.50;;
38513;SDS011;24282;48.400;10.808;2023-02-28T15:43:33;12.23;;;8.00;;
38513;SDS011;24282;48.400;10.808;2023-02-28T15:46:06;9.90;;;7.50;;
38513;SDS011;24282;48.400;10.808;2023-02-28T15:48:53;10.60;;;7.50;;
38513;SDS011;24282;48.400;10.808;2023-02-28T15:51:22;9.40;;;6.87;;
38513;SDS011;24282;48.400;10.808;2023-02-28T15:53:59;9.17;;;6.80;;
38513;SDS011;24282;48.400;10.808;2023-02-28T15:56:39;10.80;;;6.97;;
38513;SDS011;24282;48.400;10.808;2023-02-28T15:59:13;9.27;;;7.13;;
38513;SDS011;24282;48.400;10.808;2023-02-28T16:01:42;9.03;;;7.07;;
38513;SDS011;24282;48.400;10.808;2023-02-28T16:04:19;11.53;;;7.27;;
38513;SDS011;24282;48.400;10.808;2023-02-28T16:06:45;11.67;;;7.73;;
38513;SDS011;24282;48.400;10.808;2023-02-28T16:09:23;12.50;;;6.80;;
38513;SDS011;24282;48.400;10.808;2023-02-28T16:11:50;8.80;;;6.77;;
38513;SDS011;24282;48.400;10.808;2023-02-28T16:14:19;10.20;;;7.87;;
38513;SDS011;24282;48.400;10.808;2023-02-28T16:16:51;10.83;;;7.93;;
38513;SDS011;24282;48.400;10.808;2023-02-28T16:19:19;9.97;;;7.27;;
38513;SDS011;24282;48.400;10.808;2023-02-28T16:21:45;11.47;;;8.10;;
38513;SDS011;24282;48.400;10.808;2023-02-28T16:24:12;9.67;;;7.33;;
38513;SDS011;24282;48.400;10.808;2023-02-28T16:26:39;11.23;;;7.40;;
38513;SDS011;24282;48.400;10.808;2023-02-28T16:29:08;10.20;;;7.13;;
38513;SDS011;24282;48.400;10.808;2023-02-28T16:31:38;11.80;;;8.20;;
38513;SDS011;24282;48.400;10.808;2023-02-28T16:34:04;12.10;;;8.10;;
38513;SDS011;24282;48.400;10.808;2023-02-28T16:36:30;10.63;;;7.90;;
38513;SDS011;24282;48.400;10.808;2023-02-28T16:38:56;10.90;;;8.30;;
38513;SDS011;24282;48.400;10.808;2023-02-28T16:41:23;11.57;;;8.30;;
38513;SDS011;24282;48.400;10.808;2023-02-28T16:43:52;11.00;;;7.63;;
38513;SDS011;24282;48.400;10.808;2023-02-28T16:46:23;13.00;;;8.80;;
38513;SDS011;24282;48.400;10.808;2023-02-28T16:48:52;12.50;;;8.97;;
38513;SDS011;24282;48.400;10.808;2023-02-28T16:51:18;13.77;;;9.03;;
38513;SDS011;24282;48.400;10.808;2023-02-28T16:53:44;12.87;;;8.30;;
38513;SDS011;24282;48.400;10.808;2023-02-28T16:56:15;11.67;;;8.70;;
38513;SDS011;24282;48.400;10.808;2023-02-28T16:58:46;11.57;;;8.23;;
38513;SDS011;24282;48.400;10.808;2023-02-28T17:01:14;11.43;;;7.50;;
38513;SDS011;24282;48.400;10.808;2023-02-28T17:03:40;12.10;;;8.20;;
38513;SDS011;24282;48.400;10.808;2023-02-28T17:06:23;13.20;;;8.63;;
38513;SDS011;24282;48.400;10.808;2023-02-28T17:08:53;13.80;;;8.63;;
38513;SDS011;24282;48.400;10.808;2023-02-28T17:11:19;11.20;;;8.60;;
38513;SDS011;24282;48.400;10.808;2023-02-28T17:13:45;10.73;;;7.77;;
38513;SDS011;24282;48.400;10.808;2023-02-28T17:18:55;12.57;;;9.20;;
38513;SDS011;24282;48.400;10.808;2023-02-28T17:21:23;12.00;;;8.83;;
38513;SDS011;24282;48.400;10.808;2023-02-28T17:23:49;16.90;;;8.37;;
38513;SDS011;24282;48.400;10.808;2023-02-28T17:26:16;14.93;;;9.57;;
38513;SDS011;24282;48.400;10.808;2023-02-28T17:28:49;11.83;;;8.73;;
38513;SDS011;24282;48.400;10.808;2023-02-28T17:31:16;12.60;;;9.17;;
38513;SDS011;24282;48.400;10.808;2023-02-28T17:33:42;12.77;;;9.00;;
38513;SDS011;24282;48.400;10.808;2023-02-28T17:36:15;13.73;;;9.33;;
38513;SDS011;24282;48.400;10.808;2023-02-28T17:38:44;11.17;;;8.23;;
38513;SDS011;24282;48.400;10.808;2023-02-28T17:41:10;15.97;;;9.50;;
38513;SDS011;24282;48.400;10.808;2023-02-28T17:43:36;12.63;;;9.77;;